Time;durP1;ratioP1;P1;durP2;ratioP2;P2;SDS_P1;SDS_P2;PMS_P1;PMS_P2;Temp;Humidity;BMP_temperature;BMP_pressure;BME280_temperature;BME280_humidity;BME280_pressure;Samples;Min_cycle;Max_cycle;Signal;HPM_P1;HPM_P2
2023/01/15 00:01:39;;;;;;;253.00;183.50;;;;;;;;;;5051968;28;20078;-72
2023/01/15 00:04:05;;;;;;;213.10;156.60;;;;;;;;;;5053266;28;20028;-71
2023/01/15 00:06:33;;;;;;;202.38;143.23;;;;;;;;;;5053659;28;20443;-71
2023/01/15 00:08:59;;;;;;;247.23;173.73;;;;;;;;;;5053869;28;20027;-74
2023/01/15 00:11:24;;;;;;;271.25;194.63;;;;;;;;;;5059546;28;20032;-74
2023/01/15 00:13:49;;;;;;;256.20;184.25;;;;;;;;;;5052658;28;20039;-72
2023/01/15 00:16:17;;;;;;;298.80;210.90;;;;;;;;;;5052553;28;20428;-73
2023/01/15 00:18:42;;;;;;;238.00;165.85;;;;;;;;;;5046753;28;20035;-72
2023/01/15 00:21:09;;;;;;;212.30;148.23;;;;;;;;;;5059782;28;20029;-75
2023/01/15 00:29:03;;;;;;;148.43;111.97;;;;;;;;;;5065558;28;20051;-72
2023/01/15 00:31:29;;;;;;;138.75;101.95;;;;;;;;;;5058946;28;20530;-74
2023/01/15 00:33:54;;;;;;;212.60;147.25;;;;;;;;;;5061938;28;20036;-72
2023/01/15 00:36:20;;;;;;;235.30;161.65;;;;;;;;;;5066256;28;20033;-73
2023/01/15 00:38:45;;;;;;;235.18;173.52;;;;;;;;;;5059842;28;20103;-71
2023/01/15 00:41:10;;;;;;;263.58;190.93;;;;;;;;;;5060628;28;20080;-72
2023/01/15 00:43:35;;;;;;;332.05;231.18;;;;;;;;;;5065434;28;20032;-72
2023/01/15 00:46:01;;;;;;;281.95;204.43;;;;;;;;;;5065202;28;20036;-72
2023/01/15 00:48:26;;;;;;;200.55;139.73;;;;;;;;;;5064617;28;20028;-71
2023/01/15 00:50:52;;;;;;;175.50;121.35;;;;;;;;;;5066564;28;20094;-71
2023/01/15 00:53:17;;;;;;;197.75;143.60;;;;;;;;;;5064964;28;20517;-71
2023/01/15 00:55:42;;;;;;;167.88;127.00;;;;;;;;;;5056952;28;20094;-76
2023/01/15 00:58:08;;;;;;;174.98;130.07;;;;;;;;;;5054302;28;20529;-74
2023/01/15 01:00:33;;;;;;;160.43;116.85;;;;;;;;;;5062714;28;20039;-71
2023/01/15 01:02:58;;;;;;;145.75;113.35;;;;;;;;;;5065626;28;20089;-72
2023/01/15 01:05:23;;;;;;;141.30;110.10;;;;;;;;;;5065553;28;20020;-73
2023/01/15 01:07:49;;;;;;;140.73;110.55;;;;;;;;;;5063365;28;20452;-72
2023/01/15 01:10:15;;;;;;;147.20;118.82;;;;;;;;;;5064068;28;20147;-72
2023/01/15 01:12:40;;;;;;;153.30;122.00;;;;;;;;;;5058702;28;20020;-72
2023/01/15 01:15:06;;;;;;;149.25;118.95;;;;;;;;;;5061926;28;20028;-72
2023/01/15 01:17:32;;;;;;;139.68;112.68;;;;;;;;;;5066923;28;20060;-71
2023/01/15 01:19:58;;;;;;;141.20;109.75;;;;;;;;;;5065127;28;20025;-74
2023/01/15 01:22:23;;;;;;;138.48;112.82;;;;;;;;;;5063901;28;20024;-72
2023/01/15 01:24:48;;;;;;;144.98;114.80;;;;;;;;;;5065423;28;20028;-73
2023/01/15 01:27:15;;;;;;;138.13;107.05;;;;;;;;;;5064250;28;21165;-72
2023/01/15 01:29:40;;;;;;;146.70;112.53;;;;;;;;;;5054910;28;20090;-72
2023/01/15 01:32:05;;;;;;;147.00;112.53;;;;;;;;;;5066258;28;20370;-71
2023/01/15 01:34:32;;;;;;;141.27;104.88;;;;;;;;;;5064064;28;20397;-73
2023/01/15 01:36:57;;;;;;;113.53;87.95;;;;;;;;;;5053757;28;20424;-74
2023/01/15 01:39:22;;;;;;;118.00;93.07;;;;;;;;;;5055245;28;20078;-72
2023/01/15 01:41:48;;;;;;;117.95;95.10;;;;;;;;;;5062667;28;20040;-72
2023/01/15 01:44:31;;;;;;;121.38;94.43;;;;;;;;;;5051505;28;20346;-73
2023/01/15 01:46:57;;;;;;;125.88;105.45;;;;;;;;;;5064207;28;20029;-71
2023/01/15 01:49:23;;;;;;;130.95;103.20;;;;;;;;;;5059669;28;20515;-71
2023/01/15 01:51:50;;;;;;;120.65;97.45;;;;;;;;;;5058974;28;20149;-73
2023/01/15 01:54:17;;;;;;;99.38;78.70;;;;;;;;;;5063998;28;20431;-72
2023/01/15 01:56:42;;;;;;;86.03;67.97;;;;;;;;;;5064517;28;20034;-72
2023/01/15 01:59:08;;;;;;;90.35;67.32;;;;;;;;;;5063513;28;20024;-73
2023/01/15 02:01:33;;;;;;;103.00;81.25;;;;;;;;;;5056409;28;20093;-75
2023/01/15 02:03:59;;;;;;;203.10;144.98;;;;;;;;;;5059898;28;20032;-72
2023/01/15 02:06:25;;;;;;;190.57;137.80;;;;;;;;;;5052873;28;20020;-72
2023/01/15 02:08:51;;;;;;;196.95;142.45;;;;;;;;;;5059115;28;20043;-72
2023/01/15 02:11:18;;;;;;;199.10;142.77;;;;;;;;;;5063097;28;20024;-73
2023/01/15 02:14:05;;;;;;;189.30;135.80;;;;;;;;;;5059937;28;20455;-74
2023/01/15 02:16:50;;;;;;;190.73;135.57;;;;;;;;;;5052096;28;20131;-73
2023/01/15 02:19:33;;;;;;;83.35;64.93;;;;;;;;;;5059889;28;20035;-75
2023/01/15 02:22:11;;;;;;;99.47;83.38;;;;;;;;;;5051786;28;20045;-72
2023/01/15 02:24:55;;;;;;;124.53;106.18;;;;;;;;;;5060944;28;20028;-72
2023/01/15 02:27:22;;;;;;;88.25;73.40;;;;;;;;;;5062498;28;20020;-73
2023/01/15 02:29:57;;;;;;;212.60;156.98;;;;;;;;;;5062573;28;20040;-72
2023/01/15 02:32:23;;;;;;;99.28;75.80;;;;;;;;;;5063143;28;20454;-72
2023/01/15 02:34:55;;;;;;;63.75;49.90;;;;;;;;;;5067282;28;20033;-72
2023/01/15 02:37:32;;;;;;;169.55;126.75;;;;;;;;;;5057737;28;20025;-72
2023/01/15 02:39:59;;;;;;;144.27;111.15;;;;;;;;;;5059569;28;20032;-72
2023/01/15 02:42:26;;;;;;;152.27;112.13;;;;;;;;;;5062019;28;20078;-76
2023/01/15 02:44:53;;;;;;;175.32;129.68;;;;;;;;;;5063014;28;20060;-73
2023/01/15 02:47:21;;;;;;;166.10;124.68;;;;;;;;;;5063009;28;20032;-74
2023/01/15 02:49:47;;;;;;;157.35;116.07;;;;;;;;;;5062706;28;20032;-73
2023/01/15 02:52:15;;;;;;;143.88;113.90;;;;;;;;;;5061697;28;20035;-73
2023/01/15 02:54:51;;;;;;;142.43;111.38;;;;;;;;;;5051438;28;20044;-73
2023/01/15 02:57:17;;;;;;;132.02;103.93;;;;;;;;;;5062904;28;20032;-75
2023/01/15 02:59:46;;;;;;;150.27;115.68;;;;;;;;;;5062592;28;20030;-75
2023/01/15 03:02:17;;;;;;;203.73;148.20;;;;;;;;;;5063193;28;20035;-72
2023/01/15 03:04:45;;;;;;;169.55;131.45;;;;;;;;;;5061013;28;20077;-76
2023/01/15 03:07:17;;;;;;;169.20;132.02;;;;;;;;;;5062232;28;20028;-72
2023/01/15 03:09:43;;;;;;;181.13;139.02;;;;;;;;;;5051435;28;20024;-74
2023/01/15 03:12:08;;;;;;;184.80;141.38;;;;;;;;;;5053152;28;20105;-72
2023/01/15 03:15:04;;;;;;;217.40;166.35;;;;;;;;;;5055334;28;20112;-72
2023/01/15 03:17:46;;;;;;;219.30;172.38;;;;;;;;;;5054725;28;20052;-75
2023/01/15 03:20:15;;;;;;;222.27;167.63;;;;;;;;;;5062773;28;20028;-74
2023/01/15 03:22:43;;;;;;;194.75;149.48;;;;;;;;;;5062565;28;20033;-73
2023/01/15 03:25:11;;;;;;;164.95;125.65;;;;;;;;;;5063893;28;20028;-73
2023/01/15 03:27:37;;;;;;;163.73;122.90;;;;;;;;;;5062691;28;20020;-71
2023/01/15 03:30:08;;;;;;;196.77;152.57;;;;;;;;;;5064277;28;20038;-71
2023/01/15 03:32:33;;;;;;;188.43;140.68;;;;;;;;;;5060933;28;20459;-72
2023/01/15 03:34:59;;;;;;;193.75;149.48;;;;;;;;;;5063305;28;20024;-73
2023/01/15 03:37:26;;;;;;;180.52;137.18;;;;;;;;;;5062766;28;20401;-73
2023/01/15 03:39:52;;;;;;;176.80;133.20;;;;;;;;;;5054402;28;20068;-72
2023/01/15 03:42:23;;;;;;;175.63;134.20;;;;;;;;;;5057393;28;20084;-72
2023/01/15 03:44:55;;;;;;;170.35;131.07;;;;;;;;;;5063158;28;20126;-72
2023/01/15 03:47:20;;;;;;;187.50;139.85;;;;;;;;;;5063382;28;20081;-71
2023/01/15 03:49:48;;;;;;;207.40;154.63;;;;;;;;;;5061665;28;20449;-74
2023/01/15 03:52:27;;;;;;;183.00;137.80;;;;;;;;;;5061351;28;20776;-72
2023/01/15 03:55:04;;;;;;;174.40;131.18;;;;;;;;;;5061933;28;20093;-71
2023/01/15 03:57:48;;;;;;;123.05;94.47;;;;;;;;;;5063397;28;20948;-71
2023/01/15 04:00:14;;;;;;;107.40;84.57;;;;;;;;;;5066518;28;20032;-72
2023/01/15 04:02:39;;;;;;;108.00;83.15;;;;;;;;;;5066130;28;20033;-72
2023/01/15 04:05:05;;;;;;;112.95;88.80;;;;;;;;;;5066909;28;20355;-72
2023/01/15 04:07:31;;;;;;;126.18;100.75;;;;;;;;;;5067510;28;20026;-73
2023/01/15 04:09:56;;;;;;;132.75;103.55;;;;;;;;;;5068366;28;20086;-71
2023/01/15 04:12:21;;;;;;;143.60;110.85;;;;;;;;;;5066258;28;20348;-78
2023/01/15 04:14:46;;;;;;;134.57;107.30;;;;;;;;;;5066296;28;20094;-72
2023/01/15 04:17:12;;;;;;;125.28;96.32;;;;;;;;;;5056777;28;20039;-71
2023/01/15 04:19:37;;;;;;;132.18;104.68;;;;;;;;;;5067495;28;20103;-71
2023/01/15 04:22:03;;;;;;;141.07;110.20;;;;;;;;;;5067956;28;20093;-73
2023/01/15 04:24:28;;;;;;;125.93;97.82;;;;;;;;;;5065348;28;20034;-73
2023/01/15 04:26:53;;;;;;;99.93;80.20;;;;;;;;;;5066566;28;20032;-74
2023/01/15 04:29:19;;;;;;;100.00;76.75;;;;;;;;;;5065722;28;20124;-74
2023/01/15 04:31:44;;;;;;;183.68;138.63;;;;;;;;;;5067072;28;20440;-72
2023/01/15 04:34:09;;;;;;;149.93;120.00;;;;;;;;;;5066648;28;20035;-71
2023/01/15 04:36:34;;;;;;;162.75;124.20;;;;;;;;;;5066480;28;20410;-72
2023/01/15 04:39:00;;;;;;;77.40;62.72;;;;;;;;;;5066358;28;20020;-71
2023/01/15 04:44:09;;;;;;;59.95;49.90;;;;;;;;;;5068684;28;20439;-71
2023/01/15 04:46:45;;;;;;;55.08;45.20;;;;;;;;;;5065359;28;20024;-72
2023/01/15 04:49:12;;;;;;;56.15;44.70;;;;;;;;;;5066815;28;20020;-72
2023/01/15 04:51:38;;;;;;;57.72;46.00;;;;;;;;;;5067285;28;20074;-72
2023/01/15 04:54:04;;;;;;;58.03;47.28;;;;;;;;;;5055548;28;20068;-75
2023/01/15 04:56:29;;;;;;;56.45;44.85;;;;;;;;;;5061590;28;20024;-72
2023/01/15 04:58:55;;;;;;;57.17;45.70;;;;;;;;;;5065359;28;20028;-72
2023/01/15 05:01:20;;;;;;;59.60;48.90;;;;;;;;;;5064280;28;20013;-72
2023/01/15 05:03:45;;;;;;;56.63;46.65;;;;;;;;;;5065497;28;20374;-71
2023/01/15 05:06:13;;;;;;;66.00;54.42;;;;;;;;;;5065814;28;20095;-71
2023/01/15 05:08:38;;;;;;;66.13;54.90;;;;;;;;;;5067168;28;20051;-71
2023/01/15 05:11:04;;;;;;;66.22;52.83;;;;;;;;;;5064588;28;20028;-71
2023/01/15 05:13:32;;;;;;;58.85;48.88;;;;;;;;;;5074439;28;20036;-71
2023/01/15 05:16:06;;;;;;;61.10;50.05;;;;;;;;;;5064408;28;20024;-72
2023/01/15 05:18:31;;;;;;;63.90;51.65;;;;;;;;;;5065187;28;20040;-73
2023/01/15 05:20:56;;;;;;;63.00;52.88;;;;;;;;;;5065606;28;20045;-72
2023/01/15 05:23:21;;;;;;;63.22;52.47;;;;;;;;;;5066615;28;20024;-72
2023/01/15 05:25:47;;;;;;;63.78;51.60;;;;;;;;;;5065981;28;20056;-72
2023/01/15 05:28:12;;;;;;;71.05;59.42;;;;;;;;;;5065609;28;20060;-72
2023/01/15 05:30:37;;;;;;;158.18;126.70;;;;;;;;;;5065687;28;20024;-76
2023/01/15 05:33:03;;;;;;;185.80;147.30;;;;;;;;;;5064683;28;20077;-73
2023/01/15 05:35:28;;;;;;;121.97;101.03;;;;;;;;;;5065137;28;20546;-72
2023/01/15 05:37:53;;;;;;;87.20;73.25;;;;;;;;;;5065035;28;20025;-74
2023/01/15 05:40:18;;;;;;;75.20;63.30;;;;;;;;;;5064994;28;20078;-73
2023/01/15 05:42:44;;;;;;;86.90;71.13;;;;;;;;;;5063751;28;20121;-73
2023/01/15 05:45:09;;;;;;;107.78;90.03;;;;;;;;;;5064432;28;20478;-72
2023/01/15 05:47:34;;;;;;;115.53;95.32;;;;;;;;;;5063995;28;20028;-73
2023/01/15 05:50:00;;;;;;;79.20;65.72;;;;;;;;;;5065150;28;20038;-72
2023/01/15 05:52:25;;;;;;;89.40;74.00;;;;;;;;;;5063798;28;20060;-72
2023/01/15 05:54:50;;;;;;;80.45;66.10;;;;;;;;;;5063194;28;20036;-72
2023/01/15 05:57:16;;;;;;;60.22;49.75;;;;;;;;;;5064872;28;20029;-73
2023/01/15 05:59:41;;;;;;;69.47;55.30;;;;;;;;;;5050066;28;20043;-73
2023/01/15 06:02:06;;;;;;;154.52;115.72;;;;;;;;;;5052185;28;20079;-73
2023/01/15 06:04:32;;;;;;;153.35;111.28;;;;;;;;;;5052376;28;20444;-72
2023/01/15 06:06:57;;;;;;;136.32;102.30;;;;;;;;;;5052525;28;20071;-73
2023/01/15 06:09:23;;;;;;;139.30;107.90;;;;;;;;;;5051203;28;20037;-74
2023/01/15 06:11:49;;;;;;;133.15;97.63;;;;;;;;;;5052020;28;20458;-72
2023/01/15 06:14:14;;;;;;;186.13;133.60;;;;;;;;;;5050603;28;20035;-71
2023/01/15 06:16:39;;;;;;;274.33;185.60;;;;;;;;;;5051994;28;20027;-72
2023/01/15 06:19:05;;;;;;;302.30;196.15;;;;;;;;;;5050772;28;20028;-72
2023/01/15 06:21:31;;;;;;;276.20;187.38;;;;;;;;;;5054786;28;20032;-72
2023/01/15 06:23:56;;;;;;;307.55;209.65;;;;;;;;;;5061389;28;20056;-72
2023/01/15 06:26:22;;;;;;;317.98;231.50;;;;;;;;;;5063450;28;20025;-71
2023/01/15 06:28:48;;;;;;;254.55;187.18;;;;;;;;;;5057210;28;20442;-72
2023/01/15 06:31:15;;;;;;;284.83;212.93;;;;;;;;;;5051531;28;20031;-71
2023/01/15 06:33:40;;;;;;;292.83;209.05;;;;;;;;;;5062331;28;20036;-74
2023/01/15 06:36:07;;;;;;;321.35;226.73;;;;;;;;;;5063202;28;20094;-72
2023/01/15 06:38:32;;;;;;;239.68;164.02;;;;;;;;;;5062951;28;20047;-72
2023/01/15 06:41:01;;;;;;;107.57;82.07;;;;;;;;;;5063781;28;20413;-71
2023/01/15 06:48:54;;;;;;;280.17;227.88;;;;;;;;;;5054760;28;20036;-73
2023/01/15 06:51:20;;;;;;;287.50;245.05;;;;;;;;;;5060707;28;20016;-72
2023/01/15 06:53:45;;;;;;;234.10;188.10;;;;;;;;;;5062028;28;20031;-73
2023/01/15 06:56:13;;;;;;;458.73;301.48;;;;;;;;;;5065061;28;20048;-72
2023/01/15 06:58:38;;;;;;;551.88;333.75;;;;;;;;;;5063922;28;20016;-75
2023/01/15 07:01:10;;;;;;;364.50;221.05;;;;;;;;;;5051245;28;20028;-75
2023/01/15 07:03:35;;;;;;;250.70;160.85;;;;;;;;;;5057272;28;20359;-74
2023/01/15 07:06:04;;;;;;;179.57;135.70;;;;;;;;;;5050422;28;20040;-73
2023/01/15 07:08:30;;;;;;;151.27;122.13;;;;;;;;;;5048939;28;20109;-74
2023/01/15 07:11:00;;;;;;;124.15;102.45;;;;;;;;;;5051005;28;20046;-76
2023/01/15 07:13:25;;;;;;;120.68;88.80;;;;;;;;;;5050861;28;20028;-74
2023/01/15 07:15:51;;;;;;;123.28;91.93;;;;;;;;;;5047345;28;20032;-73
2023/01/15 07:18:16;;;;;;;146.52;106.03;;;;;;;;;;5048445;28;20135;-73
2023/01/15 07:20:41;;;;;;;436.25;190.00;;;;;;;;;;5048524;28;20078;-72
2023/01/15 07:23:06;;;;;;;173.45;113.28;;;;;;;;;;5046807;28;20078;-73
2023/01/15 07:25:32;;;;;;;96.60;80.07;;;;;;;;;;5049537;28;20087;-76
2023/01/15 07:27:57;;;;;;;173.43;95.57;;;;;;;;;;5049471;28;20012;-74
2023/01/15 07:30:22;;;;;;;840.30;412.27;;;;;;;;;;5049510;28;20021;-73
2023/01/15 07:32:48;;;;;;;262.02;164.82;;;;;;;;;;5047747;28;20021;-73
2023/01/15 07:35:13;;;;;;;184.07;135.05;;;;;;;;;;5050019;28;20407;-74
2023/01/15 07:37:38;;;;;;;173.77;126.00;;;;;;;;;;5048330;28;20032;-75
2023/01/15 07:40:04;;;;;;;272.77;208.63;;;;;;;;;;5049371;28;20028;-74
2023/01/15 07:50:43;;;;;;;232.32;184.80;;;;;;;;;;5063149;28;20043;-74
2023/01/15 07:53:08;;;;;;;270.85;203.35;;;;;;;;;;5062648;28;20383;-75
2023/01/15 07:55:34;;;;;;;242.63;191.13;;;;;;;;;;5059464;28;20021;-74
2023/01/15 07:57:59;;;;;;;129.77;103.30;;;;;;;;;;5047488;28;20024;-73
2023/01/15 08:00:25;;;;;;;107.97;81.15;;;;;;;;;;5063393;28;20020;-74
2023/01/15 08:02:50;;;;;;;231.25;193.52;;;;;;;;;;5062872;28;20060;-75
2023/01/15 08:05:16;;;;;;;184.48;142.27;;;;;;;;;;5050615;28;20020;-75
2023/01/15 08:07:42;;;;;;;118.60;93.00;;;;;;;;;;5048674;28;20032;-75
2023/01/15 08:10:08;;;;;;;125.55;95.53;;;;;;;;;;5063098;28;20028;-75
2023/01/15 08:15:19;;;;;;;171.93;130.60;;;;;;;;;;5045297;28;20094;-73
2023/01/15 08:17:45;;;;;;;149.50;117.45;;;;;;;;;;5042848;28;20036;-74
2023/01/15 08:20:12;;;;;;;141.25;111.75;;;;;;;;;;5044982;28;20039;-72
2023/01/15 08:22:39;;;;;;;101.22;82.82;;;;;;;;;;5044795;28;20052;-72
2023/01/15 08:25:04;;;;;;;98.70;82.93;;;;;;;;;;5044246;28;20451;-73
2023/01/15 08:27:30;;;;;;;58.38;49.70;;;;;;;;;;5045202;28;20459;-72
2023/01/15 08:29:55;;;;;;;69.05;55.03;;;;;;;;;;5062597;28;20036;-72
2023/01/15 08:32:21;;;;;;;39.70;33.30;;;;;;;;;;5050073;28;20021;-72
2023/01/15 08:34:46;;;;;;;45.25;37.78;;;;;;;;;;5057715;28;20025;-74
2023/01/15 08:37:11;;;;;;;46.63;39.17;;;;;;;;;;5048928;28;20103;-74
2023/01/15 08:39:37;;;;;;;53.10;41.10;;;;;;;;;;5049903;28;20032;-72
2023/01/15 08:42:02;;;;;;;52.70;40.25;;;;;;;;;;5060501;28;20464;-71
2023/01/15 08:44:27;;;;;;;50.47;38.55;;;;;;;;;;5061278;28;20035;-72
2023/01/15 08:46:53;;;;;;;66.45;52.55;;;;;;;;;;5056121;28;20033;-72
2023/01/15 08:49:19;;;;;;;80.03;57.75;;;;;;;;;;5063965;28;20120;-72
2023/01/15 08:51:48;;;;;;;106.25;69.32;;;;;;;;;;5065796;28;20178;-73
2023/01/15 08:54:13;;;;;;;110.68;73.68;;;;;;;;;;5066446;28;20020;-71
2023/01/15 08:56:39;;;;;;;327.27;177.82;;;;;;;;;;5066627;28;20035;-71
2023/01/15 08:59:04;;;;;;;102.95;63.85;;;;;;;;;;5065503;28;20051;-73
2023/01/15 09:01:30;;;;;;;315.95;185.18;;;;;;;;;;5065713;28;20025;-71
2023/01/15 09:03:55;;;;;;;618.70;463.85;;;;;;;;;;5055756;28;20047;-72
2023/01/15 09:06:21;;;;;;;158.63;116.60;;;;;;;;;;5055071;28;20067;-72
2023/01/15 09:08:46;;;;;;;77.95;58.25;;;;;;;;;;5047505;28;20020;-75
2023/01/15 09:11:12;;;;;;;70.45;53.97;;;;;;;;;;5051452;28;20027;-72
2023/01/15 09:13:38;;;;;;;23.15;20.15;;;;;;;;;;5052628;28;20363;-71
2023/01/15 09:16:04;;;;;;;59.85;46.53;;;;;;;;;;5051091;28;20406;-74
2023/01/15 09:18:30;;;;;;;72.18;56.40;;;;;;;;;;5054121;28;20024;-74
2023/01/15 09:20:55;;;;;;;37.67;30.55;;;;;;;;;;5051422;28;20033;-72
2023/01/15 09:23:20;;;;;;;31.67;26.95;;;;;;;;;;5051731;28;20097;-73
2023/01/15 09:25:53;;;;;;;24.73;20.45;;;;;;;;;;5051770;28;20062;-72
2023/01/15 09:28:18;;;;;;;27.13;24.17;;;;;;;;;;5053338;28;20028;-73
2023/01/15 09:30:44;;;;;;;25.40;22.25;;;;;;;;;;5052745;28;20027;-72
2023/01/15 09:33:10;;;;;;;34.35;27.80;;;;;;;;;;5052055;28;20067;-76
2023/01/15 09:35:35;;;;;;;29.90;24.95;;;;;;;;;;5051104;28;20047;-75
2023/01/15 09:38:00;;;;;;;38.25;31.70;;;;;;;;;;5051960;28;20071;-74
2023/01/15 09:40:35;;;;;;;62.67;46.53;;;;;;;;;;5051781;28;20035;-72
2023/01/15 09:43:14;;;;;;;50.47;41.65;;;;;;;;;;5051674;28;20179;-78
2023/01/15 09:45:44;;;;;;;28.58;23.65;;;;;;;;;;5051893;28;20020;-76
2023/01/15 09:48:28;;;;;;;129.38;91.10;;;;;;;;;;5053518;28;20039;-76
2023/01/15 09:50:53;;;;;;;76.43;57.00;;;;;;;;;;5051218;28;20025;-77
2023/01/15 09:53:21;;;;;;;56.60;41.28;;;;;;;;;;5051146;28;20103;-75
2023/01/15 09:55:48;;;;;;;56.47;42.70;;;;;;;;;;5047849;28;20040;-75
2023/01/15 09:58:16;;;;;;;109.55;91.47;;;;;;;;;;5053628;28;20452;-76
2023/01/15 10:00:44;;;;;;;50.72;42.63;;;;;;;;;;5054405;28;20046;-72
2023/01/15 10:03:15;;;;;;;24.90;22.17;;;;;;;;;;5064609;28;20060;-73
2023/01/15 10:05:56;;;;;;;57.85;45.08;;;;;;;;;;5063052;28;20016;-74
2023/01/15 10:08:24;;;;;;;58.17;48.33;;;;;;;;;;5064713;28;20756;-79
2023/01/15 10:10:53;;;;;;;82.13;60.33;;;;;;;;;;5053782;28;20717;-74
2023/01/15 10:13:38;;;;;;;82.95;53.22;;;;;;;;;;5050217;28;20047;-74
2023/01/15 10:16:04;;;;;;;75.43;47.65;;;;;;;;;;5046956;28;20085;-75
2023/01/15 10:18:29;;;;;;;36.97;28.05;;;;;;;;;;5050195;28;20135;-75
2023/01/15 10:21:13;;;;;;;21.65;19.42;;;;;;;;;;5049653;28;20028;-73
2023/01/15 10:23:39;;;;;;;18.95;15.73;;;;;;;;;;5048779;28;20059;-73
2023/01/15 10:26:16;;;;;;;33.72;28.42;;;;;;;;;;5059778;28;20473;-76
2023/01/15 10:29:04;;;;;;;27.40;24.42;;;;;;;;;;5051681;28;20047;-77
2023/01/15 10:31:45;;;;;;;36.05;30.50;;;;;;;;;;5039573;28;20043;-75
2023/01/15 10:34:30;;;;;;;21.67;17.60;;;;;;;;;;5049127;28;20033;-75
2023/01/15 10:37:16;;;;;;;13.93;11.80;;;;;;;;;;5058657;28;20030;-75
2023/01/15 10:39:58;;;;;;;34.65;26.73;;;;;;;;;;5046276;28;20040;-76
2023/01/15 10:42:43;;;;;;;27.17;22.73;;;;;;;;;;5050005;28;20054;-75
2023/01/15 10:45:14;;;;;;;15.38;13.80;;;;;;;;;;5050654;28;20155;-74
2023/01/15 10:47:40;;;;;;;14.10;12.57;;;;;;;;;;5047768;28;20095;-76
2023/01/15 10:50:14;;;;;;;31.70;26.77;;;;;;;;;;5050926;28;20424;-76
2023/01/15 10:52:42;;;;;;;31.13;26.35;;;;;;;;;;5048368;28;20738;-75
2023/01/15 10:55:13;;;;;;;25.27;21.30;;;;;;;;;;5049562;28;20094;-76
2023/01/15 10:57:47;;;;;;;30.70;23.00;;;;;;;;;;5050620;28;20853;-76
2023/01/15 11:00:13;;;;;;;24.17;19.17;;;;;;;;;;5050495;28;20028;-74
2023/01/15 11:02:39;;;;;;;37.47;25.60;;;;;;;;;;5056317;28;20478;-72
2023/01/15 11:05:05;;;;;;;23.38;19.77;;;;;;;;;;5062414;28;20025;-75
2023/01/15 11:07:38;;;;;;;15.85;13.68;;;;;;;;;;5049028;28;20029;-74
2023/01/15 11:10:05;;;;;;;11.13;10.05;;;;;;;;;;5050681;28;20020;-74
2023/01/15 11:20:45;;;;;;;44.03;33.45;;;;;;;;;;5060151;28;20073;-75
2023/01/15 11:23:12;;;;;;;38.45;24.73;;;;;;;;;;5062142;28;20075;-75
2023/01/15 11:25:43;;;;;;;34.60;26.02;;;;;;;;;;5061354;28;20084;-73
2023/01/15 11:28:11;;;;;;;22.08;18.02;;;;;;;;;;5062857;28;20028;-72
2023/01/15 11:30:37;;;;;;;20.27;18.08;;;;;;;;;;5063402;28;20083;-73
2023/01/15 11:33:05;;;;;;;21.02;18.60;;;;;;;;;;5063129;28;20384;-76
2023/01/15 11:35:32;;;;;;;15.13;13.63;;;;;;;;;;5063472;28;20079;-74
2023/01/15 11:38:05;;;;;;;17.70;15.90;;;;;;;;;;5057195;28;20074;-75
2023/01/15 11:40:30;;;;;;;27.48;21.67;;;;;;;;;;5046598;28;20029;-74
2023/01/15 11:51:41;;;;;;;15.82;14.18;;;;;;;;;;5063224;28;20163;-71
2023/01/15 11:54:08;;;;;;;20.25;18.15;;;;;;;;;;5063515;28;20451;-72
2023/01/15 11:56:34;;;;;;;19.15;17.17;;;;;;;;;;5064676;28;20021;-73
2023/01/15 11:59:08;;;;;;;45.97;40.97;;;;;;;;;;5062697;28;20036;-72
2023/01/15 12:01:38;;;;;;;40.83;36.58;;;;;;;;;;5062386;28;20021;-71
2023/01/15 12:04:21;;;;;;;28.90;24.88;;;;;;;;;;5062674;28;20055;-72
2023/01/15 12:06:47;;;;;;;33.95;29.27;;;;;;;;;;5048487;28;20029;-72
2023/01/15 12:09:20;;;;;;;28.85;23.00;;;;;;;;;;5044840;28;20028;-72
2023/01/15 12:11:54;;;;;;;39.60;32.80;;;;;;;;;;5048382;28;20029;-72
2023/01/15 12:14:19;;;;;;;22.10;17.75;;;;;;;;;;5049118;28;20087;-72
2023/01/15 12:16:54;;;;;;;43.30;36.13;;;;;;;;;;5053452;28;20374;-74
2023/01/15 12:19:25;;;;;;;40.97;36.72;;;;;;;;;;5049220;28;20039;-73
2023/01/15 12:21:56;;;;;;;44.53;39.65;;;;;;;;;;5049607;28;20085;-75
2023/01/15 12:24:23;;;;;;;20.33;17.20;;;;;;;;;;5049955;28;20126;-77
2023/01/15 12:26:54;;;;;;;42.92;34.95;;;;;;;;;;5049548;28;20028;-74
2023/01/15 12:29:26;;;;;;;24.45;21.83;;;;;;;;;;5054455;28;20029;-77
2023/01/15 12:32:01;;;;;;;35.25;31.65;;;;;;;;;;5053792;28;20352;-74
2023/01/15 12:34:31;;;;;;;42.35;37.58;;;;;;;;;;5049870;28;20097;-75
2023/01/15 12:36:56;;;;;;;;;;;;;;;;;;5068836;28;20028;-74
2023/01/15 12:39:26;;;;;;;47.60;42.63;;;;;;;;;;5066019;28;19923;-75
2023/01/15 12:45:06;;;;;;;27.83;24.80;;;;;;;;;;5065678;28;20124;-76
2023/01/15 12:47:47;;;;;;;40.67;31.17;;;;;;;;;;5065771;28;20089;-75
2023/01/15 12:50:30;;;;;;;160.40;99.40;;;;;;;;;;5066450;28;20028;-74
2023/01/15 12:53:16;;;;;;;44.83;32.95;;;;;;;;;;5058320;28;20033;-76
2023/01/15 12:56:05;;;;;;;12.82;11.25;;;;;;;;;;5052290;28;20033;-75
2023/01/15 12:58:35;;;;;;;40.47;29.27;;;;;;;;;;5058109;28;20133;-75
2023/01/15 13:01:24;;;;;;;13.85;12.43;;;;;;;;;;5050667;28;20025;-77
2023/01/15 13:04:02;;;;;;;20.83;18.02;;;;;;;;;;5031770;28;20063;-77
2023/01/15 13:06:28;;;;;;;13.95;12.20;;;;;;;;;;5051050;28;20032;-75
2023/01/15 13:09:01;;;;;;;22.90;16.95;;;;;;;;;;5049668;28;20043;-75
2023/01/15 13:11:27;;;;;;;16.60;14.82;;;;;;;;;;5049842;28;20030;-76
2023/01/15 13:13:58;;;;;;;59.35;36.17;;;;;;;;;;5052198;28;21088;-76
2023/01/15 13:16:32;;;;;;;78.00;44.75;;;;;;;;;;5057599;28;20035;-78
2023/01/15 13:19:10;;;;;;;54.03;36.80;;;;;;;;;;5048795;28;20031;-74
2023/01/15 13:21:35;;;;;;;53.88;35.00;;;;;;;;;;5049332;28;20020;-75
2023/01/15 13:24:18;;;;;;;45.50;31.67;;;;;;;;;;5052222;28;20071;-72
2023/01/15 13:26:55;;;;;;;20.80;18.50;;;;;;;;;;5052538;28;20482;-74
2023/01/15 13:29:29;;;;;;;17.50;15.82;;;;;;;;;;5050648;28;20444;-74
2023/01/15 13:31:57;;;;;;;17.50;15.75;;;;;;;;;;5049339;28;20032;-74
2023/01/15 13:34:25;;;;;;;13.40;12.05;;;;;;;;;;5052836;28;20042;-74
2023/01/15 13:36:52;;;;;;;10.13;9.13;;;;;;;;;;5050860;28;20037;-73
2023/01/15 13:39:22;;;;;;;47.28;35.10;;;;;;;;;;5049129;28;20024;-75
2023/01/15 13:44:36;;;;;;;22.10;19.77;;;;;;;;;;5050392;28;20048;-76
2023/01/15 13:47:01;;;;;;;19.35;17.35;;;;;;;;;;5053562;28;20016;-75
2023/01/15 13:49:33;;;;;;;18.65;16.75;;;;;;;;;;5053222;28;20024;-73
2023/01/15 13:52:03;;;;;;;18.77;16.88;;;;;;;;;;5050976;28;20024;-74
2023/01/15 13:54:29;;;;;;;13.00;11.70;;;;;;;;;;5049126;28;20028;-72
2023/01/15 13:57:05;;;;;;;15.63;13.25;;;;;;;;;;5050985;28;20059;-74
2023/01/15 13:59:34;;;;;;;22.65;20.25;;;;;;;;;;5050825;28;20369;-74
2023/01/15 14:02:00;;;;;;;16.60;14.90;;;;;;;;;;5049184;28;20016;-73
2023/01/15 14:04:36;;;;;;;29.30;26.20;;;;;;;;;;5050489;28;20047;-75
2023/01/15 14:07:01;;;;;;;24.65;20.27;;;;;;;;;;5050528;28;20056;-74
2023/01/15 14:09:30;;;;;;;23.98;21.23;;;;;;;;;;5049215;28;20078;-77
2023/01/15 14:11:58;;;;;;;18.60;16.65;;;;;;;;;;5050834;28;20033;-74
2023/01/15 14:14:42;;;;;;;19.70;17.75;;;;;;;;;;5053836;28;20063;-73
2023/01/15 14:17:11;;;;;;;18.42;16.52;;;;;;;;;;5062591;28;20045;-74
2023/01/15 14:19:51;;;;;;;15.45;13.93;;;;;;;;;;5054694;28;20474;-76
2023/01/15 14:22:34;;;;;;;19.83;17.65;;;;;;;;;;5048829;28;20031;-77
2023/01/15 14:25:12;;;;;;;15.63;13.88;;;;;;;;;;5050941;28;20033;-76
2023/01/15 14:27:43;;;;;;;57.53;50.58;;;;;;;;;;5049631;28;20050;-76
2023/01/15 14:30:12;;;;;;;31.73;28.30;;;;;;;;;;5049404;28;20035;-75
2023/01/15 14:32:41;;;;;;;26.98;24.27;;;;;;;;;;5050966;28;20113;-76
2023/01/15 14:35:11;;;;;;;16.95;14.85;;;;;;;;;;5045893;28;20028;-77
2023/01/15 14:37:42;;;;;;;22.15;18.85;;;;;;;;;;5049268;28;20112;-78
2023/01/15 14:40:16;;;;;;;47.92;36.65;;;;;;;;;;5047337;28;20344;-76
2023/01/15 14:45:27;;;;;;;93.00;79.32;;;;;;;;;;5047412;28;20194;-76
2023/01/15 14:47:52;;;;;;;55.22;48.60;;;;;;;;;;5049576;28;20428;-79
2023/01/15 14:50:33;;;;;;;55.85;49.92;;;;;;;;;;5044704;28;20028;-78
2023/01/15 14:53:13;;;;;;;53.88;47.75;;;;;;;;;;5049800;28;20036;-76
2023/01/15 14:55:50;;;;;;;51.35;42.95;;;;;;;;;;5061997;28;20302;-76
2023/01/15 14:58:28;;;;;;;206.02;159.98;;;;;;;;;;5052462;28;20037;-78
2023/01/15 15:00:56;;;;;;;50.53;44.90;;;;;;;;;;5064417;28;20024;-77
2023/01/15 15:03:29;;;;;;;44.15;39.28;;;;;;;;;;5060823;28;20455;-77
2023/01/15 15:05:55;;;;;;;46.25;41.65;;;;;;;;;;5062323;28;20024;-76